sensor_id;sensor_type;location;lat;lon;timestamp;P1;durP1;ratioP1;P2;durP2;ratioP2
76202;SDS011;64985;46.364;17.008;2023-03-16T00:02:19;12.98;;;5.60;;
76202;SDS011;64985;46.364;17.008;2023-03-16T00:05:22;15.38;;;6.68;;
76202;SDS011;64985;46.364;17.008;2023-03-16T00:08:27;17.52;;;6.57;;
76202;SDS011;64985;46.364;17.008;2023-03-16T00:11:30;14.52;;;6.78;;
76202;SDS011;64985;46.364;17.008;2023-03-16T00:14:33;14.60;;;6.85;;
76202;SDS011;64985;46.364;17.008;2023-03-16T00:17:37;13.80;;;6.55;;
76202;SDS011;64985;46.364;17.008;2023-03-16T00:20:40;11.57;;;6.28;;
76202;SDS011;64985;46.364;17.008;2023-03-16T00:23:43;13.73;;;6.68;;
76202;SDS011;64985;46.364;17.008;2023-03-16T00:26:47;13.25;;;6.65;;
76202;SDS011;64985;46.364;17.008;2023-03-16T00:29:51;14.27;;;6.57;;
76202;SDS011;64985;46.364;17.008;2023-03-16T00:32:58;13.20;;;5.65;;
76202;SDS011;64985;46.364;17.008;2023-03-16T00:36:01;14.38;;;6.00;;
76202;SDS011;64985;46.364;17.008;2023-03-16T00:39:06;11.90;;;5.35;;
76202;SDS011;64985;46.364;17.008;2023-03-16T00:42:13;16.75;;;6.43;;
76202;SDS011;64985;46.364;17.008;2023-03-16T00:45:17;14.13;;;6.20;;
76202;SDS011;64985;46.364;17.008;2023-03-16T00:48:20;12.90;;;5.53;;
76202;SDS011;64985;46.364;17.008;2023-03-16T00:51:25;13.85;;;5.80;;
76202;SDS011;64985;46.364;17.008;2023-03-16T00:54:28;13.23;;;5.45;;
76202;SDS011;64985;46.364;17.008;2023-03-16T00:57:33;12.13;;;5.60;;
76202;SDS011;64985;46.364;17.008;2023-03-16T01:00:36;11.07;;;5.82;;
76202;SDS011;64985;46.364;17.008;2023-03-16T01:03:41;12.98;;;5.65;;
76202;SDS011;64985;46.364;17.008;2023-03-16T01:06:45;11.13;;;5.20;;
76202;SDS011;64985;46.364;17.008;2023-03-16T01:09:48;12.57;;;5.28;;
76202;SDS011;64985;46.364;17.008;2023-03-16T01:12:51;10.30;;;5.38;;
76202;SDS011;64985;46.364;17.008;2023-03-16T01:15:57;9.82;;;5.18;;
76202;SDS011;64985;46.364;17.008;2023-03-16T01:19:02;12.13;;;5.40;;
76202;SDS011;64985;46.364;17.008;2023-03-16T01:22:05;13.10;;;5.35;;
76202;SDS011;64985;46.364;17.008;2023-03-16T01:25:11;12.23;;;5.10;;
76202;SDS011;64985;46.364;17.008;2023-03-16T01:28:15;10.75;;;5.18;;
76202;SDS011;64985;46.364;17.008;2023-03-16T01:31:18;11.55;;;5.75;;
76202;SDS011;64985;46.364;17.008;2023-03-16T01:34:21;12.88;;;6.20;;
76202;SDS011;64985;46.364;17.008;2023-03-16T01:37:24;13.63;;;5.55;;
76202;SDS011;64985;46.364;17.008;2023-03-16T01:40:27;18.30;;;7.70;;
76202;SDS011;64985;46.364;17.008;2023-03-16T01:43:31;13.25;;;6.93;;
76202;SDS011;64985;46.364;17.008;2023-03-16T01:46:38;15.80;;;6.47;;
76202;SDS011;64985;46.364;17.008;2023-03-16T01:49:43;15.70;;;7.20;;
76202;SDS011;64985;46.364;17.008;2023-03-16T01:52:49;14.73;;;6.78;;
76202;SDS011;64985;46.364;17.008;2023-03-16T01:55:53;13.70;;;6.70;;
76202;SDS011;64985;46.364;17.008;2023-03-16T01:58:56;17.05;;;7.03;;
76202;SDS011;64985;46.364;17.008;2023-03-16T02:02:03;14.82;;;6.55;;
76202;SDS011;64985;46.364;17.008;2023-03-16T02:05:11;19.00;;;7.30;;
76202;SDS011;64985;46.364;17.008;2023-03-16T02:08:24;17.00;;;6.40;;
76202;SDS011;64985;46.364;17.008;2023-03-16T02:11:29;11.88;;;5.03;;
76202;SDS011;64985;46.364;17.008;2023-03-16T02:14:32;13.55;;;5.22;;
76202;SDS011;64985;46.364;17.008;2023-03-16T02:17:36;13.18;;;5.18;;
76202;SDS011;64985;46.364;17.008;2023-03-16T02:23:43;18.35;;;6.38;;
76202;SDS011;64985;46.364;17.008;2023-03-16T02:26:50;10.77;;;5.50;;
76202;SDS011;64985;46.364;17.008;2023-03-16T02:33:16;11.18;;;5.65;;
76202;SDS011;64985;46.364;17.008;2023-03-16T02:36:21;11.93;;;5.72;;
76202;SDS011;64985;46.364;17.008;2023-03-16T02:39:24;17.05;;;6.35;;
76202;SDS011;64985;46.364;17.008;2023-03-16T02:42:27;17.40;;;6.55;;
76202;SDS011;64985;46.364;17.008;2023-03-16T02:45:35;13.95;;;6.60;;
76202;SDS011;64985;46.364;17.008;2023-03-16T02:51:54;19.33;;;8.00;;
76202;SDS011;64985;46.364;17.008;2023-03-16T02:54:58;14.43;;;6.68;;
76202;SDS011;64985;46.364;17.008;2023-03-16T02:58:02;11.18;;;5.32;;
76202;SDS011;64985;46.364;17.008;2023-03-16T03:01:05;13.98;;;6.07;;
76202;SDS011;64985;46.364;17.008;2023-03-16T03:04:08;11.23;;;5.60;;
76202;SDS011;64985;46.364;17.008;2023-03-16T03:07:12;11.50;;;5.70;;
76202;SDS011;64985;46.364;17.008;2023-03-16T03:10:15;12.45;;;5.20;;
76202;SDS011;64985;46.364;17.008;2023-03-16T03:13:19;10.15;;;5.13;;
76202;SDS011;64985;46.364;17.008;2023-03-16T03:16:22;8.55;;;4.78;;
76202;SDS011;64985;46.364;17.008;2023-03-16T03:19:26;9.65;;;5.00;;
76202;SDS011;64985;46.364;17.008;2023-03-16T03:22:28;8.70;;;4.72;;
76202;SDS011;64985;46.364;17.008;2023-03-16T03:25:32;11.23;;;5.03;;
76202;SDS011;64985;46.364;17.008;2023-03-16T03:28:37;11.13;;;5.05;;
76202;SDS011;64985;46.364;17.008;2023-03-16T03:31:41;16.67;;;7.18;;
76202;SDS011;64985;46.364;17.008;2023-03-16T03:34:45;14.85;;;7.40;;
76202;SDS011;64985;46.364;17.008;2023-03-16T03:37:48;20.13;;;8.38;;
76202;SDS011;64985;46.364;17.008;2023-03-16T03:40:52;10.75;;;5.22;;
76202;SDS011;64985;46.364;17.008;2023-03-16T03:44:00;10.73;;;5.15;;
76202;SDS011;64985;46.364;17.008;2023-03-16T03:47:03;11.43;;;4.95;;
76202;SDS011;64985;46.364;17.008;2023-03-16T03:50:07;10.60;;;4.93;;
76202;SDS011;64985;46.364;17.008;2023-03-16T03:53:11;9.60;;;4.80;;
76202;SDS011;64985;46.364;17.008;2023-03-16T03:56:14;9.07;;;4.95;;
76202;SDS011;64985;46.364;17.008;2023-03-16T03:59:17;9.57;;;4.93;;
76202;SDS011;64985;46.364;17.008;2023-03-16T04:02:21;11.23;;;5.20;;
76202;SDS011;64985;46.364;17.008;2023-03-16T04:05:24;10.57;;;5.47;;
76202;SDS011;64985;46.364;17.008;2023-03-16T04:08:28;14.88;;;5.43;;
76202;SDS011;64985;46.364;17.008;2023-03-16T04:11:31;10.52;;;5.47;;
76202;SDS011;64985;46.364;17.008;2023-03-16T04:14:35;9.02;;;5.35;;
76202;SDS011;64985;46.364;17.008;2023-03-16T04:17:38;11.95;;;5.35;;
76202;SDS011;64985;46.364;17.008;2023-03-16T04:20:41;9.07;;;5.60;;
76202;SDS011;64985;46.364;17.008;2023-03-16T04:23:45;14.27;;;5.57;;
76202;SDS011;64985;46.364;17.008;2023-03-16T04:26:48;9.93;;;5.60;;
76202;SDS011;64985;46.364;17.008;2023-03-16T04:29:51;13.07;;;5.70;;
76202;SDS011;64985;46.364;17.008;2023-03-16T04:33:00;10.75;;;5.72;;
76202;SDS011;64985;46.364;17.008;2023-03-16T04:36:03;9.90;;;5.88;;
76202;SDS011;64985;46.364;17.008;2023-03-16T04:39:07;11.52;;;5.85;;
76202;SDS011;64985;46.364;17.008;2023-03-16T04:42:11;13.15;;;6.32;;
76202;SDS011;64985;46.364;17.008;2023-03-16T04:45:15;12.10;;;6.47;;
76202;SDS011;64985;46.364;17.008;2023-03-16T04:48:19;16.30;;;7.43;;
76202;SDS011;64985;46.364;17.008;2023-03-16T04:51:22;16.00;;;7.50;;
76202;SDS011;64985;46.364;17.008;2023-03-16T04:54:26;17.50;;;8.40;;
76202;SDS011;64985;46.364;17.008;2023-03-16T04:57:30;16.55;;;8.18;;
76202;SDS011;64985;46.364;17.008;2023-03-16T05:00:33;15.60;;;7.65;;
76202;SDS011;64985;46.364;17.008;2023-03-16T05:03:36;15.82;;;8.13;;
76202;SDS011;64985;46.364;17.008;2023-03-16T05:06:39;15.30;;;7.47;;
76202;SDS011;64985;46.364;17.008;2023-03-16T05:09:42;12.70;;;7.50;;
76202;SDS011;64985;46.364;17.008;2023-03-16T05:12:46;19.13;;;7.88;;
76202;SDS011;64985;46.364;17.008;2023-03-16T05:15:49;15.23;;;7.70;;
76202;SDS011;64985;46.364;17.008;2023-03-16T05:18:58;15.52;;;7.88;;
76202;SDS011;64985;46.364;17.008;2023-03-16T05:22:02;15.07;;;7.85;;
76202;SDS011;64985;46.364;17.008;2023-03-16T05:25:05;13.95;;;7.57;;
76202;SDS011;64985;46.364;17.008;2023-03-16T05:28:09;13.40;;;7.20;;
76202;SDS011;64985;46.364;17.008;2023-03-16T05:31:12;16.90;;;8.07;;
76202;SDS011;64985;46.364;17.008;2023-03-16T05:34:15;15.05;;;7.90;;
76202;SDS011;64985;46.364;17.008;2023-03-16T05:37:18;16.05;;;8.23;;
76202;SDS011;64985;46.364;17.008;2023-03-16T05:40:22;15.60;;;8.57;;
76202;SDS011;64985;46.364;17.008;2023-03-16T05:43:25;14.57;;;8.40;;
76202;SDS011;64985;46.364;17.008;2023-03-16T05:46:32;14.50;;;8.00;;
76202;SDS011;64985;46.364;17.008;2023-03-16T05:49:35;16.00;;;9.02;;
76202;SDS011;64985;46.364;17.008;2023-03-16T05:52:39;14.70;;;7.60;;
76202;SDS011;64985;46.364;17.008;2023-03-16T05:55:42;15.52;;;7.50;;
76202;SDS011;64985;46.364;17.008;2023-03-16T05:58:46;15.15;;;7.72;;
76202;SDS011;64985;46.364;17.008;2023-03-16T06:01:49;15.57;;;7.80;;
76202;SDS011;64985;46.364;17.008;2023-03-16T06:04:52;16.60;;;7.75;;
76202;SDS011;64985;46.364;17.008;2023-03-16T06:07:55;15.32;;;7.57;;
76202;SDS011;64985;46.364;17.008;2023-03-16T06:10:58;14.18;;;7.93;;
76202;SDS011;64985;46.364;17.008;2023-03-16T06:14:02;14.60;;;7.90;;
76202;SDS011;64985;46.364;17.008;2023-03-16T06:17:05;16.45;;;8.20;;
76202;SDS011;64985;46.364;17.008;2023-03-16T06:20:09;14.30;;;7.53;;
76202;SDS011;64985;46.364;17.008;2023-03-16T06:23:14;17.58;;;7.82;;
76202;SDS011;64985;46.364;17.008;2023-03-16T06:26:17;14.63;;;8.35;;
76202;SDS011;64985;46.364;17.008;2023-03-16T06:29:20;14.25;;;7.97;;
76202;SDS011;64985;46.364;17.008;2023-03-16T06:32:24;13.48;;;7.88;;
76202;SDS011;64985;46.364;17.008;2023-03-16T06:35:27;14.15;;;8.35;;
76202;SDS011;64985;46.364;17.008;2023-03-16T06:38:30;15.38;;;7.90;;
76202;SDS011;64985;46.364;17.008;2023-03-16T06:41:34;13.70;;;8.00;;
76202;SDS011;64985;46.364;17.008;2023-03-16T06:44:38;14.52;;;7.63;;
76202;SDS011;64985;46.364;17.008;2023-03-16T06:47:41;15.25;;;7.80;;
76202;SDS011;64985;46.364;17.008;2023-03-16T06:50:47;17.23;;;8.13;;
76202;SDS011;64985;46.364;17.008;2023-03-16T06:53:50;13.48;;;8.02;;
76202;SDS011;64985;46.364;17.008;2023-03-16T06:56:53;13.55;;;8.10;;
76202;SDS011;64985;46.364;17.008;2023-03-16T06:59:56;14.10;;;7.85;;
76202;SDS011;64985;46.364;17.008;2023-03-16T07:02:59;13.80;;;7.32;;
76202;SDS011;64985;46.364;17.008;2023-03-16T07:06:04;13.10;;;7.22;;
76202;SDS011;64985;46.364;17.008;2023-03-16T07:09:07;14.27;;;7.40;;
76202;SDS011;64985;46.364;17.008;2023-03-16T07:12:11;14.10;;;7.78;;
76202;SDS011;64985;46.364;17.008;2023-03-16T07:15:14;13.73;;;7.57;;
76202;SDS011;64985;46.364;17.008;2023-03-16T07:18:18;13.95;;;7.35;;
76202;SDS011;64985;46.364;17.008;2023-03-16T07:21:21;10.90;;;6.97;;
76202;SDS011;64985;46.364;17.008;2023-03-16T07:24:25;12.15;;;7.45;;
76202;SDS011;64985;46.364;17.008;2023-03-16T07:27:28;14.70;;;7.68;;
76202;SDS011;64985;46.364;17.008;2023-03-16T07:30:32;11.68;;;7.15;;
76202;SDS011;64985;46.364;17.008;2023-03-16T07:33:35;14.15;;;8.07;;
76202;SDS011;64985;46.364;17.008;2023-03-16T07:36:38;15.70;;;8.02;;
76202;SDS011;64985;46.364;17.008;2023-03-16T07:39:41;11.77;;;6.97;;
76202;SDS011;64985;46.364;17.008;2023-03-16T07:42:45;12.55;;;7.75;;
76202;SDS011;64985;46.364;17.008;2023-03-16T07:45:48;12.88;;;7.53;;
76202;SDS011;64985;46.364;17.008;2023-03-16T07:48:52;9.95;;;6.85;;
76202;SDS011;64985;46.364;17.008;2023-03-16T07:51:56;12.43;;;7.25;;
76202;SDS011;64985;46.364;17.008;2023-03-16T07:54:59;11.65;;;7.18;;
76202;SDS011;64985;46.364;17.008;2023-03-16T07:58:02;11.45;;;7.13;;
76202;SDS011;64985;46.364;17.008;2023-03-16T08:01:07;11.60;;;6.78;;
76202;SDS011;64985;46.364;17.008;2023-03-16T08:04:11;13.57;;;7.28;;
76202;SDS011;64985;46.364;17.008;2023-03-16T08:07:15;12.73;;;7.10;;
76202;SDS011;64985;46.364;17.008;2023-03-16T08:10:18;11.15;;;6.63;;
76202;SDS011;64985;46.364;17.008;2023-03-16T08:13:21;10.15;;;6.75;;
76202;SDS011;64985;46.364;17.008;2023-03-16T08:16:24;11.55;;;6.80;;
76202;SDS011;64985;46.364;17.008;2023-03-16T08:19:29;12.85;;;7.65;;
76202;SDS011;64985;46.364;17.008;2023-03-16T08:22:32;13.55;;;7.82;;
76202;SDS011;64985;46.364;17.008;2023-03-16T08:25:38;11.40;;;7.07;;
76202;SDS011;64985;46.364;17.008;2023-03-16T08:28:41;10.00;;;6.40;;
76202;SDS011;64985;46.364;17.008;2023-03-16T08:31:48;13.45;;;6.90;;
76202;SDS011;64985;46.364;17.008;2023-03-16T08:34:51;11.27;;;6.90;;
76202;SDS011;64985;46.364;17.008;2023-03-16T08:37:55;11.27;;;6.55;;
76202;SDS011;64985;46.364;17.008;2023-03-16T08:40:58;35.17;;;23.60;;
76202;SDS011;64985;46.364;17.008;2023-03-16T08:44:01;10.32;;;6.10;;
76202;SDS011;64985;46.364;17.008;2023-03-16T08:47:04;11.15;;;6.50;;
76202;SDS011;64985;46.364;17.008;2023-03-16T08:50:08;11.73;;;7.63;;
76202;SDS011;64985;46.364;17.008;2023-03-16T08:53:14;14.40;;;8.07;;
76202;SDS011;64985;46.364;17.008;2023-03-16T08:56:17;14.95;;;7.97;;
76202;SDS011;64985;46.364;17.008;2023-03-16T08:59:21;9.10;;;4.95;;
76202;SDS011;64985;46.364;17.008;2023-03-16T09:02:31;8.85;;;4.75;;
76202;SDS011;64985;46.364;17.008;2023-03-16T09:05:34;6.10;;;3.85;;
76202;SDS011;64985;46.364;17.008;2023-03-16T09:08:38;7.90;;;4.07;;
76202;SDS011;64985;46.364;17.008;2023-03-16T09:11:42;5.65;;;3.70;;
76202;SDS011;64985;46.364;17.008;2023-03-16T09:14:45;6.38;;;3.70;;
76202;SDS011;64985;46.364;17.008;2023-03-16T09:17:49;8.43;;;4.80;;
76202;SDS011;64985;46.364;17.008;2023-03-16T09:20:57;6.22;;;4.05;;
76202;SDS011;64985;46.364;17.008;2023-03-16T09:24:01;6.45;;;3.72;;
76202;SDS011;64985;46.364;17.008;2023-03-16T09:27:05;4.85;;;3.30;;
76202;SDS011;64985;46.364;17.008;2023-03-16T09:30:08;5.32;;;3.75;;
76202;SDS011;64985;46.364;17.008;2023-03-16T09:33:12;4.72;;;3.55;;
76202;SDS011;64985;46.364;17.008;2023-03-16T09:36:15;4.65;;;3.40;;
76202;SDS011;64985;46.364;17.008;2023-03-16T09:39:18;9.73;;;6.70;;
76202;SDS011;64985;46.364;17.008;2023-03-16T09:42:29;6.75;;;4.22;;
76202;SDS011;64985;46.364;17.008;2023-03-16T09:45:40;6.60;;;3.67;;
76202;SDS011;64985;46.364;17.008;2023-03-16T09:49:00;6.35;;;3.92;;
76202;SDS011;64985;46.364;17.008;2023-03-16T09:52:10;5.30;;;3.70;;
76202;SDS011;64985;46.364;17.008;2023-03-16T09:58:37;7.03;;;4.07;;
76202;SDS011;64985;46.364;17.008;2023-03-16T10:05:11;5.20;;;3.25;;
76202;SDS011;64985;46.364;17.008;2023-03-16T10:08:19;5.75;;;2.95;;
76202;SDS011;64985;46.364;17.008;2023-03-16T10:11:29;7.18;;;3.47;;
76202;SDS011;64985;46.364;17.008;2023-03-16T10:20:45;5.40;;;3.13;;
76202;SDS011;64985;46.364;17.008;2023-03-16T10:23:49;5.82;;;3.40;;
76202;SDS011;64985;46.364;17.008;2023-03-16T10:26:56;4.63;;;2.95;;
76202;SDS011;64985;46.364;17.008;2023-03-16T10:30:06;4.85;;;3.00;;
76202;SDS011;64985;46.364;17.008;2023-03-16T10:33:25;5.47;;;3.65;;
76202;SDS011;64985;46.364;17.008;2023-03-16T10:36:32;6.72;;;3.35;;
76202;SDS011;64985;46.364;17.008;2023-03-16T10:39:37;4.13;;;2.97;;
76202;SDS011;64985;46.364;17.008;2023-03-16T10:42:47;4.40;;;2.92;;
76202;SDS011;64985;46.364;17.008;2023-03-16T10:45:50;4.18;;;2.78;;
76202;SDS011;64985;46.364;17.008;2023-03-16T10:48:57;4.95;;;3.10;;
76202;SDS011;64985;46.364;17.008;2023-03-16T10:52:10;7.55;;;4.30;;
76202;SDS011;64985;46.364;17.008;2023-03-16T10:55:40;3.90;;;2.30;;
76202;SDS011;64985;46.364;17.008;2023-03-16T10:58:44;4.32;;;2.50;;
76202;SDS011;64985;46.364;17.008;2023-03-16T11:01:48;4.75;;;2.30;;
76202;SDS011;64985;46.364;17.008;2023-03-16T11:04:51;4.60;;;2.63;;
76202;SDS011;64985;46.364;17.008;2023-03-16T11:08:19;3.75;;;2.70;;
76202;SDS011;64985;46.364;17.008;2023-03-16T11:11:29;3.55;;;2.47;;
76202;SDS011;64985;46.364;17.008;2023-03-16T11:14:33;5.37;;;2.73;;
76202;SDS011;64985;46.364;17.008;2023-03-16T11:17:39;4.45;;;2.65;;
76202;SDS011;64985;46.364;17.008;2023-03-16T11:20:48;3.67;;;2.50;;
76202;SDS011;64985;46.364;17.008;2023-03-16T11:23:55;3.70;;;2.13;;
76202;SDS011;64985;46.364;17.008;2023-03-16T11:27:00;8.07;;;2.50;;
76202;SDS011;64985;46.364;17.008;2023-03-16T11:30:14;6.20;;;2.53;;
76202;SDS011;64985;46.364;17.008;2023-03-16T11:33:56;5.13;;;2.70;;
76202;SDS011;64985;46.364;17.008;2023-03-16T11:37:22;4.25;;;2.40;;
76202;SDS011;64985;46.364;17.008;2023-03-16T11:40:39;6.70;;;2.58;;
76202;SDS011;64985;46.364;17.008;2023-03-16T11:47:41;5.43;;;2.58;;
76202;SDS011;64985;46.364;17.008;2023-03-16T11:54:21;4.10;;;2.50;;
76202;SDS011;64985;46.364;17.008;2023-03-16T12:18:37;3.75;;;1.92;;
76202;SDS011;64985;46.364;17.008;2023-03-16T12:21:46;4.93;;;2.15;;
76202;SDS011;64985;46.364;17.008;2023-03-16T12:24:56;2.88;;;1.92;;
76202;SDS011;64985;46.364;17.008;2023-03-16T12:28:01;4.97;;;2.10;;
76202;SDS011;64985;46.364;17.008;2023-03-16T12:41:47;4.50;;;1.88;;
76202;SDS011;64985;46.364;17.008;2023-03-16T12:48:40;2.85;;;1.92;;
76202;SDS011;64985;46.364;17.008;2023-03-16T12:51:45;5.60;;;2.10;;
76202;SDS011;64985;46.364;17.008;2023-03-16T12:57:57;3.50;;;1.90;;
76202;SDS011;64985;46.364;17.008;2023-03-16T13:01:03;2.70;;;1.70;;
76202;SDS011;64985;46.364;17.008;2023-03-16T13:07:22;3.85;;;1.30;;
76202;SDS011;64985;46.364;17.008;2023-03-16T13:10:27;2.85;;;1.50;;
76202;SDS011;64985;46.364;17.008;2023-03-16T13:13:31;2.83;;;1.30;;
76202;SDS011;64985;46.364;17.008;2023-03-16T13:16:35;2.38;;;1.42;;
76202;SDS011;64985;46.364;17.008;2023-03-16T13:19:40;2.60;;;1.42;;
76202;SDS011;64985;46.364;17.008;2023-03-16T13:22:47;3.45;;;1.65;;
76202;SDS011;64985;46.364;17.008;2023-03-16T13:25:59;4.43;;;1.90;;
76202;SDS011;64985;46.364;17.008;2023-03-16T13:32:31;4.68;;;1.70;;
76202;SDS011;64985;46.364;17.008;2023-03-16T13:35:35;8.65;;;3.70;;
76202;SDS011;64985;46.364;17.008;2023-03-16T13:38:40;7.47;;;1.70;;
76202;SDS011;64985;46.364;17.008;2023-03-16T13:41:57;4.07;;;1.35;;
76202;SDS011;64985;46.364;17.008;2023-03-16T13:45:10;2.30;;;1.50;;
76202;SDS011;64985;46.364;17.008;2023-03-16T13:48:16;5.05;;;1.80;;
76202;SDS011;64985;46.364;17.008;2023-03-16T13:51:20;2.67;;;1.60;;
76202;SDS011;64985;46.364;17.008;2023-03-16T13:54:24;5.07;;;1.95;;
76202;SDS011;64985;46.364;17.008;2023-03-16T13:57:37;3.75;;;1.88;;
76202;SDS011;64985;46.364;17.008;2023-03-16T14:00:42;3.92;;;1.50;;
76202;SDS011;64985;46.364;17.008;2023-03-16T14:03:47;3.08;;;1.63;;
76202;SDS011;64985;46.364;17.008;2023-03-16T14:06:53;3.95;;;1.95;;
76202;SDS011;64985;46.364;17.008;2023-03-16T14:09:59;4.28;;;2.28;;
76202;SDS011;64985;46.364;17.008;2023-03-16T14:13:21;3.95;;;2.10;;
76202;SDS011;64985;46.364;17.008;2023-03-16T14:16:26;3.88;;;2.13;;
76202;SDS011;64985;46.364;17.008;2023-03-16T14:19:40;2.95;;;1.67;;
76202;SDS011;64985;46.364;17.008;2023-03-16T14:22:49;2.92;;;1.58;;
76202;SDS011;64985;46.364;17.008;2023-03-16T14:25:53;2.22;;;1.60;;
76202;SDS011;64985;46.364;17.008;2023-03-16T14:29:00;3.55;;;2.20;;
76202;SDS011;64985;46.364;17.008;2023-03-16T14:32:19;5.30;;;1.80;;
76202;SDS011;64985;46.364;17.008;2023-03-16T14:38:34;4.43;;;2.47;;
76202;SDS011;64985;46.364;17.008;2023-03-16T14:41:38;4.68;;;2.33;;
76202;SDS011;64985;46.364;17.008;2023-03-16T14:44:42;3.15;;;1.88;;
76202;SDS011;64985;46.364;17.008;2023-03-16T14:47:46;5.20;;;2.17;;
76202;SDS011;64985;46.364;17.008;2023-03-16T14:50:54;5.38;;;2.40;;
76202;SDS011;64985;46.364;17.008;2023-03-16T14:54:07;3.85;;;2.20;;
76202;SDS011;64985;46.364;17.008;2023-03-16T14:57:16;4.53;;;1.70;;
76202;SDS011;64985;46.364;17.008;2023-03-16T15:00:20;4.75;;;1.85;;
76202;SDS011;64985;46.364;17.008;2023-03-16T15:03:29;3.08;;;1.50;;
76202;SDS011;64985;46.364;17.008;2023-03-16T15:06:36;2.38;;;1.40;;
76202;SDS011;64985;46.364;17.008;2023-03-16T15:09:40;3.08;;;1.65;;
76202;SDS011;64985;46.364;17.008;2023-03-16T15:12:47;2.75;;;1.60;;
76202;SDS011;64985;46.364;17.008;2023-03-16T15:16:05;4.88;;;1.90;;
76202;SDS011;64985;46.364;17.008;2023-03-16T15:19:12;4.80;;;1.95;;
76202;SDS011;64985;46.364;17.008;2023-03-16T15:22:16;4.07;;;2.00;;
76202;SDS011;64985;46.364;17.008;2023-03-16T15:28:37;3.10;;;1.20;;
76202;SDS011;64985;46.364;17.008;2023-03-16T15:31:40;3.35;;;1.30;;
76202;SDS011;64985;46.364;17.008;2023-03-16T15:34:43;2.70;;;1.50;;
76202;SDS011;64985;46.364;17.008;2023-03-16T15:37:47;2.25;;;1.55;;
76202;SDS011;64985;46.364;17.008;2023-03-16T15:40:51;2.65;;;1.70;;
76202;SDS011;64985;46.364;17.008;2023-03-16T15:43:54;3.33;;;1.92;;
76202;SDS011;64985;46.364;17.008;2023-03-16T15:47:03;4.13;;;2.10;;
76202;SDS011;64985;46.364;17.008;2023-03-16T15:50:08;4.72;;;2.10;;
76202;SDS011;64985;46.364;17.008;2023-03-16T15:53:26;2.60;;;1.70;;
76202;SDS011;64985;46.364;17.008;2023-03-16T15:56:33;4.85;;;2.20;;
76202;SDS011;64985;46.364;17.008;2023-03-16T15:59:55;7.53;;;2.17;;
76202;SDS011;64985;46.364;17.008;2023-03-16T16:02:58;3.58;;;2.10;;
76202;SDS011;64985;46.364;17.008;2023-03-16T16:06:02;4.38;;;2.08;;
76202;SDS011;64985;46.364;17.008;2023-03-16T16:09:10;2.95;;;1.70;;
76202;SDS011;64985;46.364;17.008;2023-03-16T16:12:14;4.22;;;2.25;;
76202;SDS011;64985;46.364;17.008;2023-03-16T16:15:31;5.05;;;3.08;;
76202;SDS011;64985;46.364;17.008;2023-03-16T16:18:38;6.50;;;2.53;;
76202;SDS011;64985;46.364;17.008;2023-03-16T16:21:42;6.18;;;2.22;;
76202;SDS011;64985;46.364;17.008;2023-03-16T16:24:46;6.68;;;2.55;;
76202;SDS011;64985;46.364;17.008;2023-03-16T16:27:49;5.45;;;2.47;;
76202;SDS011;64985;46.364;17.008;2023-03-16T16:30:54;5.18;;;2.80;;
76202;SDS011;64985;46.364;17.008;2023-03-16T16:33:57;4.82;;;2.45;;
76202;SDS011;64985;46.364;17.008;2023-03-16T16:37:00;6.68;;;3.10;;
76202;SDS011;64985;46.364;17.008;2023-03-16T16:40:03;4.72;;;2.30;;
76202;SDS011;64985;46.364;17.008;2023-03-16T16:43:08;6.45;;;3.60;;
76202;SDS011;64985;46.364;17.008;2023-03-16T16:46:22;5.10;;;2.78;;
76202;SDS011;64985;46.364;17.008;2023-03-16T16:49:28;7.30;;;3.00;;
76202;SDS011;64985;46.364;17.008;2023-03-16T16:52:44;3.83;;;2.08;;
76202;SDS011;64985;46.364;17.008;2023-03-16T16:55:47;7.78;;;2.50;;
76202;SDS011;64985;46.364;17.008;2023-03-16T16:58:50;4.30;;;1.90;;
76202;SDS011;64985;46.364;17.008;2023-03-16T17:01:53;5.05;;;2.10;;
76202;SDS011;64985;46.364;17.008;2023-03-16T17:04:58;7.68;;;2.33;;
76202;SDS011;64985;46.364;17.008;2023-03-16T17:08:02;5.30;;;2.22;;
76202;SDS011;64985;46.364;17.008;2023-03-16T17:11:07;4.68;;;2.13;;
76202;SDS011;64985;46.364;17.008;2023-03-16T17:14:23;7.85;;;2.40;;
76202;SDS011;64985;46.364;17.008;2023-03-16T17:17:29;5.78;;;2.30;;
76202;SDS011;64985;46.364;17.008;2023-03-16T17:20:33;4.90;;;2.15;;
76202;SDS011;64985;46.364;17.008;2023-03-16T17:23:36;4.82;;;2.38;;
76202;SDS011;64985;46.364;17.008;2023-03-16T17:26:52;4.22;;;2.35;;
76202;SDS011;64985;46.364;17.008;2023-03-16T17:30:00;8.38;;;2.50;;
76202;SDS011;64985;46.364;17.008;2023-03-16T17:33:08;4.75;;;2.42;;
76202;SDS011;64985;46.364;17.008;2023-03-16T17:36:15;4.68;;;2.40;;
76202;SDS011;64985;46.364;17.008;2023-03-16T17:39:23;6.65;;;2.80;;
76202;SDS011;64985;46.364;17.008;2023-03-16T17:42:28;7.07;;;3.03;;
76202;SDS011;64985;46.364;17.008;2023-03-16T17:45:32;6.35;;;2.83;;
76202;SDS011;64985;46.364;17.008;2023-03-16T17:48:35;6.78;;;2.80;;
76202;SDS011;64985;46.364;17.008;2023-03-16T17:51:40;8.18;;;2.85;;
76202;SDS011;64985;46.364;17.008;2023-03-16T17:54:49;12.35;;;3.10;;
76202;SDS011;64985;46.364;17.008;2023-03-16T17:57:54;4.97;;;2.63;;
76202;SDS011;64985;46.364;17.008;2023-03-16T18:01:01;6.38;;;2.83;;
76202;SDS011;64985;46.364;17.008;2023-03-16T18:04:16;7.53;;;2.75;;
76202;SDS011;64985;46.364;17.008;2023-03-16T18:07:21;9.27;;;3.15;;
76202;SDS011;64985;46.364;17.008;2023-03-16T18:10:26;7.25;;;3.05;;
76202;SDS011;64985;46.364;17.008;2023-03-16T18:13:33;8.23;;;3.03;;
76202;SDS011;64985;46.364;17.008;2023-03-16T18:16:41;12.52;;;5.00;;
76202;SDS011;64985;46.364;17.008;2023-03-16T18:19:46;14.05;;;4.18;;
76202;SDS011;64985;46.364;17.008;2023-03-16T18:22:51;8.23;;;4.40;;
76202;SDS011;64985;46.364;17.008;2023-03-16T18:25:57;6.68;;;3.47;;
76202;SDS011;64985;46.364;17.008;2023-03-16T18:29:10;6.18;;;3.50;;
76202;SDS011;64985;46.364;17.008;2023-03-16T18:32:19;8.48;;;3.53;;
76202;SDS011;64985;46.364;17.008;2023-03-16T18:35:40;5.30;;;2.63;;
76202;SDS011;64985;46.364;17.008;2023-03-16T18:38:47;8.50;;;3.00;;
76202;SDS011;64985;46.364;17.008;2023-03-16T18:41:53;8.13;;;3.63;;
76202;SDS011;64985;46.364;17.008;2023-03-16T18:44:59;10.65;;;5.88;;
76202;SDS011;64985;46.364;17.008;2023-03-16T18:48:04;9.43;;;4.60;;
76202;SDS011;64985;46.364;17.008;2023-03-16T18:51:14;8.30;;;3.80;;
76202;SDS011;64985;46.364;17.008;2023-03-16T18:54:28;7.20;;;3.75;;
76202;SDS011;64985;46.364;17.008;2023-03-16T18:57:35;8.27;;;4.25;;
76202;SDS011;64985;46.364;17.008;2023-03-16T19:00:39;12.80;;;7.15;;
76202;SDS011;64985;46.364;17.008;2023-03-16T19:03:44;14.02;;;7.90;;
76202;SDS011;64985;46.364;17.008;2023-03-16T19:06:48;7.38;;;4.00;;
76202;SDS011;64985;46.364;17.008;2023-03-16T19:09:55;7.13;;;2.67;;
76202;SDS011;64985;46.364;17.008;2023-03-16T19:13:00;6.53;;;2.92;;
76202;SDS011;64985;46.364;17.008;2023-03-16T19:16:08;6.38;;;3.80;;
76202;SDS011;64985;46.364;17.008;2023-03-16T19:19:21;9.00;;;3.40;;
76202;SDS011;64985;46.364;17.008;2023-03-16T19:22:26;5.38;;;2.75;;
76202;SDS011;64985;46.364;17.008;2023-03-16T19:25:35;9.52;;;4.90;;
76202;SDS011;64985;46.364;17.008;2023-03-16T19:28:41;8.40;;;3.50;;
76202;SDS011;64985;46.364;17.008;2023-03-16T19:31:48;7.78;;;3.60;;
76202;SDS011;64985;46.364;17.008;2023-03-16T19:34:53;5.57;;;3.00;;
76202;SDS011;64985;46.364;17.008;2023-03-16T19:37:57;6.70;;;2.83;;